Time;durP1;ratioP1;P1;durP2;ratioP2;P2;SDS_P1;SDS_P2;PMS_P1;PMS_P2;Temp;Humidity;BMP_temperature;BMP_pressure;BME280_temperature;BME280_humidity;BME280_pressure;Samples;Min_cycle;Max_cycle;Signal;HPM_P1;HPM_P2
2021/12/09 00:01:27;;;;;;;21.50;9.13;;;1.50;99.90;;;;;;5000613;28;20506;-93
2021/12/09 00:03:57;;;;;;;20.77;9.10;;;1.60;99.90;;;;;;5000701;28;20395;-93
2021/12/09 00:06:27;;;;;;;19.75;9.43;;;1.50;99.90;;;;;;5049927;28;20050;-92
2021/12/09 00:09:03;;;;;;;22.80;9.90;;;1.20;99.90;;;;;;5000388;28;20042;-94
2021/12/09 00:11:29;;;;;;;24.60;9.25;;;1.00;99.90;;;;;;5000358;28;20049;-93
2021/12/09 00:13:56;;;;;;;23.15;9.98;;;1.40;99.90;;;;;;5032861;28;20049;-94
2021/12/09 00:16:22;;;;;;;19.92;9.70;;;1.00;99.90;;;;;;5016514;28;20430;-93
2021/12/09 00:18:48;;;;;;;25.92;10.05;;;1.10;99.90;;;;;;5016839;28;20061;-94
2021/12/09 00:21:14;;;;;;;23.00;10.07;;;1.00;99.90;;;;;;5000318;28;20054;-93
2021/12/09 00:23:39;;;;;;;19.48;9.48;;;0.70;99.90;;;;;;5016673;28;20045;-93
2021/12/09 00:26:06;;;;;;;21.90;10.30;;;0.90;99.90;;;;;;5000465;28;20055;-93
2021/12/09 00:28:31;;;;;;;22.48;10.20;;;0.90;99.90;;;;;;5016264;28;20469;-93
2021/12/09 00:30:57;;;;;;;21.25;9.73;;;0.90;99.90;;;;;;5016956;28;20081;-93
2021/12/09 00:33:23;;;;;;;25.67;10.73;;;0.90;99.90;;;;;;5033048;28;20042;-93
2021/12/09 00:35:56;;;;;;;24.65;11.65;;;0.70;99.90;;;;;;5000234;28;20475;-93
2021/12/09 00:38:39;;;;;;;25.27;10.73;;;0.70;99.90;;;;;;5016172;28;20089;-92
2021/12/09 00:41:10;;;;;;;26.55;10.93;;;0.80;99.90;;;;;;5019526;28;20057;-92
2021/12/09 00:43:37;;;;;;;24.88;10.73;;;0.60;99.90;;;;;;5004186;28;20102;-93
2021/12/09 00:46:03;;;;;;;24.50;12.13;;;0.60;99.90;;;;;;5036717;28;20485;-94
2021/12/09 00:48:29;;;;;;;27.77;10.75;;;0.60;99.90;;;;;;5003822;28;20107;-94
2021/12/09 00:50:55;;;;;;;27.08;10.95;;;0.60;99.90;;;;;;5003612;28;20049;-94
2021/12/09 00:53:22;;;;;;;26.15;10.77;;;0.70;99.90;;;;;;5003923;28;20069;-93
2021/12/09 00:55:48;;;;;;;20.48;10.10;;;0.60;99.90;;;;;;5036502;28;20183;-92
2021/12/09 00:58:14;;;;;;;23.35;11.10;;;0.60;99.90;;;;;;5003636;28;20466;-93
2021/12/09 01:00:40;;;;;;;24.05;10.80;;;0.60;99.90;;;;;;5053294;28;20045;-93
2021/12/09 01:03:06;;;;;;;24.85;10.88;;;0.60;99.90;;;;;;5020114;28;20407;-93
2021/12/09 01:05:32;;;;;;;24.70;10.35;;;0.70;99.90;;;;;;5003647;28;20045;-93
2021/12/09 01:07:58;;;;;;;21.70;11.23;;;0.70;99.90;;;;;;5036240;28;20033;-93
2021/12/09 01:10:25;;;;;;;25.80;11.90;;;0.50;99.90;;;;;;5019657;28;20439;-94
2021/12/09 01:12:51;;;;;;;21.95;10.48;;;0.70;99.90;;;;;;5003482;28;20479;-94
2021/12/09 01:15:19;;;;;;;25.83;10.95;;;0.80;99.90;;;;;;5036237;28;20053;-94
2021/12/09 01:17:46;;;;;;;26.13;11.45;;;0.70;99.90;;;;;;5003449;28;20048;-93
2021/12/09 01:20:15;;;;;;;24.90;11.23;;;0.70;99.90;;;;;;5003176;28;20542;-93
2021/12/09 01:22:43;;;;;;;21.20;10.48;;;0.70;99.90;;;;;;5019564;28;20041;-93
2021/12/09 01:25:19;;;;;;;24.95;11.35;;;1.00;99.90;;;;;;5035839;28;20063;-93
2021/12/09 01:27:47;;;;;;;27.35;11.82;;;0.70;99.90;;;;;;5003591;28;22012;-93
2021/12/09 01:30:17;;;;;;;32.38;11.63;;;1.10;99.90;;;;;;5003111;28;20041;-94
2021/12/09 01:32:49;;;;;;;31.55;10.52;;;0.80;99.90;;;;;;5003165;28;20095;-94
2021/12/09 01:35:27;;;;;;;27.00;12.32;;;0.80;99.90;;;;;;5019305;28;20088;-94
2021/12/09 01:37:58;;;;;;;21.52;10.77;;;0.80;99.90;;;;;;5018908;28;20400;-94
2021/12/09 01:40:26;;;;;;;20.17;10.97;;;0.80;99.90;;;;;;5035901;28;20514;-94
2021/12/09 01:42:53;;;;;;;24.60;11.25;;;0.80;99.90;;;;;;5002874;28;20288;-93
2021/12/09 01:45:19;;;;;;;27.05;11.25;;;1.10;99.90;;;;;;5002820;28;20053;-94
2021/12/09 01:47:45;;;;;;;20.40;10.55;;;0.70;99.90;;;;;;5018880;28;20100;-93
2021/12/09 01:50:13;;;;;;;25.20;11.55;;;0.70;99.90;;;;;;5002715;28;20131;-94
2021/12/09 01:52:38;;;;;;;21.80;11.63;;;0.70;99.90;;;;;;5034927;28;20060;-93
2021/12/09 01:55:06;;;;;;;25.98;10.90;;;0.70;99.90;;;;;;5035738;28;20045;-92
2021/12/09 01:57:32;;;;;;;30.50;11.32;;;0.70;99.90;;;;;;5002753;28;20137;-93
2021/12/09 01:59:58;;;;;;;28.55;12.00;;;0.70;99.90;;;;;;5035468;28;20136;-93
2021/12/09 02:02:24;;;;;;;22.42;11.70;;;0.60;99.90;;;;;;5018730;28;20100;-94
2021/12/09 02:04:49;;;;;;;28.02;11.30;;;0.60;99.90;;;;;;5018626;28;20048;-94
2021/12/09 02:07:16;;;;;;;28.05;11.63;;;0.60;99.90;;;;;;5051816;28;20053;-93
2021/12/09 02:09:41;;;;;;;24.88;11.57;;;0.70;99.90;;;;;;5018497;28;20042;-93
2021/12/09 02:12:08;;;;;;;31.48;11.75;;;0.70;99.90;;;;;;5035420;28;20380;-94
2021/12/09 02:14:37;;;;;;;29.67;12.40;;;0.70;99.90;;;;;;5002268;28;20050;-93
2021/12/09 02:17:03;;;;;;;26.45;11.55;;;0.70;99.90;;;;;;5002541;28;20038;-93
2021/12/09 02:19:29;;;;;;;25.27;11.27;;;0.70;99.90;;;;;;5002419;28;20049;-93
2021/12/09 02:21:54;;;;;;;27.08;12.63;;;0.60;99.90;;;;;;5035455;28;20052;-93
2021/12/09 02:24:21;;;;;;;23.23;11.50;;;0.50;99.90;;;;;;5035151;28;20129;-93
2021/12/09 02:26:49;;;;;;;30.38;11.82;;;0.50;99.90;;;;;;5051745;28;20042;-93
2021/12/09 02:29:16;;;;;;;26.38;12.63;;;0.50;99.90;;;;;;5001613;28;20132;-93
2021/12/09 02:31:44;;;;;;;26.50;12.48;;;0.10;99.90;;;;;;5051179;28;20085;-93
2021/12/09 02:34:11;;;;;;;27.80;12.75;;;0.60;99.90;;;;;;5002066;28;20056;-93
2021/12/09 02:36:42;;;;;;;27.85;12.60;;;0.90;99.90;;;;;;5050919;28;20085;-92
2021/12/09 02:39:11;;;;;;;25.38;12.70;;;0.80;99.90;;;;;;5051445;28;20050;-94
2021/12/09 02:41:37;;;;;;;32.85;12.70;;;0.30;99.90;;;;;;5034526;28;20128;-91
2021/12/09 02:44:07;;;;;;;32.03;13.68;;;0.30;99.90;;;;;;5034618;28;20045;-94
2021/12/09 02:46:37;;;;;;;39.00;14.70;;;0.40;99.90;;;;;;5001890;28;20056;-94
2021/12/09 02:49:15;;;;;;;32.85;13.55;;;0.40;99.90;;;;;;5017742;28;20041;-93
2021/12/09 02:51:42;;;;;;;31.45;13.23;;;0.40;99.90;;;;;;5018139;28;20049;-93
2021/12/09 02:54:10;;;;;;;32.67;13.00;;;0.40;99.90;;;;;;5034523;28;20053;-93
2021/12/09 02:56:36;;;;;;;28.98;13.55;;;0.40;99.90;;;;;;5001569;28;20132;-93
2021/12/09 02:59:03;;;;;;;33.17;14.52;;;0.40;99.90;;;;;;5001678;28;20455;-93
2021/12/09 03:01:33;;;;;;;30.83;14.02;;;0.30;99.90;;;;;;5017818;28;20384;-93
2021/12/09 03:04:01;;;;;;;28.40;13.73;;;0.40;99.90;;;;;;5001247;28;20088;-94
2021/12/09 03:06:37;;;;;;;32.13;14.98;;;0.40;99.90;;;;;;5001230;28;20064;-93
2021/12/09 03:09:07;;;;;;;33.50;14.25;;;0.40;99.90;;;;;;5001160;28;20044;-93
2021/12/09 03:11:34;;;;;;;37.58;14.38;;;0.40;99.90;;;;;;5001387;28;20041;-92
2021/12/09 03:14:00;;;;;;;33.67;13.55;;;0.30;99.90;;;;;;5017760;28;20045;-94
2021/12/09 03:16:27;;;;;;;38.70;16.20;;;0.30;99.90;;;;;;5050319;28;20041;-93
2021/12/09 03:18:57;;;;;;;38.88;15.43;;;0.30;99.90;;;;;;5017464;28;20053;-94
2021/12/09 03:21:28;;;;;;;36.33;14.75;;;0.50;99.90;;;;;;5034219;28;20438;-93
2021/12/09 03:23:56;;;;;;;32.25;14.75;;;0.30;99.90;;;;;;5017520;28;20045;-93
2021/12/09 03:26:29;;;;;;;34.58;14.05;;;0.60;99.90;;;;;;5050245;28;20132;-93
2021/12/09 03:28:56;;;;;;;32.90;15.13;;;0.30;99.90;;;;;;5017004;28;20045;-92
2021/12/09 03:31:22;;;;;;;33.28;14.48;;;0.30;99.90;;;;;;5000839;28;20045;-93
2021/12/09 03:33:48;;;;;;;33.45;15.15;;;0.30;99.90;;;;;;5000636;28;20514;-93
2021/12/09 03:36:14;;;;;;;31.83;14.57;;;0.30;99.90;;;;;;5033681;28;20045;-93
2021/12/09 03:38:40;;;;;;;34.13;14.85;;;0.50;99.90;;;;;;5033239;28;20483;-93
2021/12/09 03:41:06;;;;;;;37.83;15.32;;;0.20;99.90;;;;;;5033521;28;20049;-93
2021/12/09 03:43:32;;;;;;;42.30;16.95;;;0.50;99.90;;;;;;5033624;28;20041;-94
2021/12/09 03:45:58;;;;;;;33.60;15.32;;;0.20;99.90;;;;;;5016789;28;20045;-94
2021/12/09 03:48:25;;;;;;;43.33;16.52;;;0.30;99.90;;;;;;5017233;28;20041;-93
2021/12/09 03:50:53;;;;;;;36.97;15.32;;;0.20;99.90;;;;;;5049981;28;20052;-93
2021/12/09 03:53:19;;;;;;;35.70;15.75;;;0.20;99.90;;;;;;5050102;28;20049;-94
2021/12/09 03:55:45;;;;;;;42.28;16.23;;;0.20;99.90;;;;;;5000368;28;20052;-93
2021/12/09 03:58:11;;;;;;;46.15;16.55;;;0.30;99.90;;;;;;5016780;28;20144;-94
2021/12/09 04:00:37;;;;;;;47.92;16.63;;;0.20;99.90;;;;;;5016222;28;20076;-93
2021/12/09 04:03:03;;;;;;;39.78;16.02;;;0.10;99.90;;;;;;5033481;28;20049;-93
2021/12/09 04:05:29;;;;;;;47.92;16.75;;;0.10;99.90;;;;;;5016759;28;20056;-92
2021/12/09 04:07:55;;;;;;;38.67;16.17;;;0.10;99.90;;;;;;5033362;28;20128;-93
2021/12/09 04:10:21;;;;;;;37.10;15.77;;;0.30;99.90;;;;;;5016690;28;20045;-93
2021/12/09 04:12:46;;;;;;;35.67;16.08;;;0.30;99.90;;;;;;5000601;28;20510;-94
2021/12/09 04:15:12;;;;;;;38.20;16.17;;;0.10;99.90;;;;;;5020550;28;20038;-93
2021/12/09 04:17:38;;;;;;;39.63;16.58;;;-0.10;99.90;;;;;;5007199;28;20054;-94
2021/12/09 04:20:06;;;;;;;34.67;17.15;;;0.30;99.90;;;;;;5039893;28;20048;-93
2021/12/09 04:22:32;;;;;;;36.53;16.17;;;0.10;99.90;;;;;;5023162;28;20107;-94
2021/12/09 04:24:58;;;;;;;31.95;16.33;;;0.30;99.90;;;;;;5006892;28;20088;-93
2021/12/09 04:27:25;;;;;;;43.20;15.80;;;0.10;99.90;;;;;;5039656;28;20534;-93
2021/12/09 04:29:52;;;;;;;39.72;15.80;;;0.20;99.90;;;;;;5022687;28;20127;-92
2021/12/09 04:32:18;;;;;;;49.00;16.95;;;0.40;99.90;;;;;;5006520;28;20049;-93
2021/12/09 04:34:44;;;;;;;39.30;16.27;;;0.10;99.90;;;;;;5006730;28;20048;-94
2021/12/09 04:37:10;;;;;;;35.13;14.82;;;0.10;99.90;;;;;;5006156;28;20131;-93
2021/12/09 04:39:36;;;;;;;42.00;17.90;;;0.10;99.90;;;;;;5039657;28;20088;-94
2021/12/09 04:42:03;;;;;;;35.53;17.67;;;0.10;99.90;;;;;;5022858;28;20056;-93
2021/12/09 04:44:28;;;;;;;37.65;16.63;;;0.10;99.90;;;;;;5006445;28;20051;-94
2021/12/09 04:46:56;;;;;;;37.15;16.63;;;0.30;99.90;;;;;;5022975;28;20124;-93
2021/12/09 04:49:22;;;;;;;42.17;17.35;;;0.50;99.90;;;;;;5006225;28;20045;-93
2021/12/09 04:51:48;;;;;;;43.30;17.65;;;0.10;99.90;;;;;;5006584;28;20045;-93
2021/12/09 04:54:14;;;;;;;41.63;16.65;;;0.10;99.90;;;;;;5039395;28;20049;-91
2021/12/09 04:56:40;;;;;;;35.75;16.17;;;0.20;99.90;;;;;;5055773;28;20140;-92
2021/12/09 04:59:07;;;;;;;37.97;16.00;;;0.30;99.90;;;;;;5022924;28;20080;-93
2021/12/09 05:01:34;;;;;;;47.15;17.13;;;0.30;99.90;;;;;;5039085;28;20048;-92
2021/12/09 05:04:00;;;;;;;39.47;16.02;;;0.40;99.90;;;;;;5023154;28;20134;-93
2021/12/09 05:06:26;;;;;;;48.10;16.92;;;0.00;99.90;;;;;;5006551;28;20124;-93
2021/12/09 05:08:52;;;;;;;43.42;16.58;;;0.40;99.90;;;;;;5055728;28;20407;-93
2021/12/09 05:13:55;;;;;;;55.88;19.10;;;-0.10;99.90;;;;;;5056062;28;20049;-92
2021/12/09 05:16:21;;;;;;;41.00;17.65;;;0.00;99.90;;;;;;5022471;28;20107;-93
2021/12/09 05:18:48;;;;;;;57.58;17.75;;;0.00;99.90;;;;;;5022821;28;20136;-92
2021/12/09 05:21:34;;;;;;;43.03;16.45;;;0.30;99.90;;;;;;5091401;27;20390;-91
2021/12/09 05:24:00;;;;;;;41.60;17.83;;;0.00;99.90;;;;;;5073975;28;20063;-91
2021/12/09 05:26:31;;;;;;;36.45;16.75;;;-0.10;99.90;;;;;;5107564;28;20052;-92
2021/12/09 05:28:57;;;;;;;39.10;16.67;;;0.20;99.90;;;;;;5073654;28;20040;-92
2021/12/09 05:34:10;;;;;;;47.83;17.27;;;0.00;99.90;;;;;;5090909;28;20055;-92
2021/12/09 05:36:36;;;;;;;45.08;18.15;;;0.00;99.90;;;;;;5090338;28;20055;-92
2021/12/09 05:39:06;;;;;;;44.85;16.52;;;0.00;99.90;;;;;;5073763;28;20122;-92
2021/12/09 05:41:33;;;;;;;45.35;17.67;;;0.00;99.90;;;;;;5073227;28;20397;-90
2021/12/09 05:44:03;;;;;;;47.15;17.77;;;0.10;99.90;;;;;;5073649;28;20102;-90
2021/12/09 05:46:30;;;;;;;51.65;17.48;;;0.10;99.90;;;;;;5074040;28;20040;-91
2021/12/09 05:48:55;;;;;;;36.53;16.35;;;0.30;99.90;;;;;;5090459;28;20418;-91
2021/12/09 05:51:25;;;;;;;45.35;16.30;;;0.10;99.90;;;;;;5073345;28;20037;-91
2021/12/09 05:53:51;;;;;;;1180.72;102.07;;;0.30;99.90;;;;;;5073099;28;20047;-90
2021/12/09 05:56:17;;;;;;;51.45;17.67;;;0.30;99.90;;;;;;5073218;28;20063;-92
2021/12/09 05:58:43;;;;;;;45.47;16.40;;;0.10;99.90;;;;;;5090342;28;20485;-91
2021/12/09 06:01:09;;;;;;;46.30;16.80;;;0.20;99.90;;;;;;5089643;28;20040;-90
2021/12/09 06:03:35;;;;;;;52.13;17.90;;;0.20;99.90;;;;;;5089898;28;20044;-91
2021/12/09 06:06:00;;;;;;;41.05;16.58;;;0.20;99.90;;;;;;5089845;28;20058;-91
2021/12/09 06:08:27;;;;;;;42.17;16.67;;;0.70;99.90;;;;;;5089027;28;20131;-91
2021/12/09 06:10:53;;;;;;;44.45;17.70;;;0.20;99.90;;;;;;5121654;28;20052;-90
2021/12/09 06:13:19;;;;;;;40.72;17.25;;;0.20;99.90;;;;;;5089912;28;20040;-91
2021/12/09 06:15:46;;;;;;;51.47;18.02;;;0.20;99.90;;;;;;5072822;28;20052;-91
2021/12/09 06:18:12;;;;;;;49.13;18.42;;;0.20;99.90;;;;;;5089984;28;20097;-91
2021/12/09 06:20:37;;;;;;;136.05;21.00;;;0.20;99.90;;;;;;5088961;28;20056;-91
2021/12/09 06:23:03;;;;;;;44.72;16.73;;;0.20;99.90;;;;;;5090294;28;20070;-90
2021/12/09 06:25:30;;;;;;;48.85;17.88;;;0.20;99.90;;;;;;5089239;28;20040;-90
2021/12/09 06:27:56;;;;;;;37.90;15.35;;;0.10;99.90;;;;;;5072829;28;20045;-90
2021/12/09 06:30:22;;;;;;;44.05;16.70;;;0.10;99.90;;;;;;5072349;28;20044;-91
2021/12/09 06:32:48;;;;;;;35.78;16.25;;;0.10;99.90;;;;;;5059568;28;20047;-90
2021/12/09 06:35:17;;;;;;;45.20;16.55;;;0.40;99.90;;;;;;5059120;28;20398;-90
2021/12/09 06:37:45;;;;;;;38.97;15.75;;;0.10;99.90;;;;;;5059038;28;20048;-90
2021/12/09 06:40:14;;;;;;;42.38;16.30;;;0.10;99.90;;;;;;5075437;28;20054;-90
2021/12/09 06:42:44;;;;;;;45.78;16.50;;;0.10;99.90;;;;;;5059251;28;20505;-90
2021/12/09 06:45:11;;;;;;;46.08;17.05;;;0.10;99.90;;;;;;5075795;28;20152;-91
2021/12/09 06:47:37;;;;;;;39.88;16.75;;;0.10;99.90;;;;;;5075484;28;20486;-90
2021/12/09 06:50:04;;;;;;;48.45;16.23;;;0.10;99.90;;;;;;5058754;28;20131;-91
2021/12/09 06:52:30;;;;;;;39.55;16.02;;;0.00;99.90;;;;;;5058705;28;20055;-91
2021/12/09 06:54:56;;;;;;;49.97;16.38;;;0.00;99.90;;;;;;5058510;28;20127;-90
2021/12/09 06:57:21;;;;;;;44.33;15.98;;;0.00;99.90;;;;;;5075567;28;20049;-91
2021/12/09 06:59:47;;;;;;;41.47;14.32;;;0.00;99.90;;;;;;5075583;28;20045;-90
2021/12/09 07:02:13;;;;;;;34.50;15.18;;;0.00;99.90;;;;;;5058558;28;20049;-90
2021/12/09 07:04:38;;;;;;;45.90;15.38;;;0.00;99.90;;;;;;5075402;28;20048;-90
2021/12/09 07:07:04;;;;;;;39.30;16.48;;;0.00;99.90;;;;;;5074956;28;20049;-90
2021/12/09 07:09:30;;;;;;;39.67;15.95;;;0.00;99.90;;;;;;5075044;28;20049;-90
2021/12/09 07:11:57;;;;;;;48.10;15.90;;;0.30;99.90;;;;;;5075257;28;20084;-90
2021/12/09 07:14:23;;;;;;;52.30;16.25;;;0.00;99.90;;;;;;5058337;28;20049;-90
2021/12/09 07:16:49;;;;;;;40.47;16.77;;;0.00;99.90;;;;;;5074970;28;20127;-90
2021/12/09 07:19:15;;;;;;;44.78;16.20;;;0.00;99.90;;;;;;5074716;28;20087;-90
2021/12/09 07:21:40;;;;;;;39.40;16.13;;;0.00;99.90;;;;;;5075381;28;20064;-90
2021/12/09 07:24:06;;;;;;;40.40;15.88;;;0.00;99.90;;;;;;5074510;28;20172;-91
2021/12/09 07:26:32;;;;;;;49.10;15.18;;;0.00;99.90;;;;;;5057282;28;20052;-89
2021/12/09 07:28:59;;;;;;;37.65;15.20;;;-0.10;99.90;;;;;;5074200;28;20506;-90
2021/12/09 07:31:27;;;;;;;34.92;15.60;;;-0.10;99.90;;;;;;5057690;28;20105;-90
2021/12/09 07:33:53;;;;;;;34.45;15.70;;;-0.10;99.90;;;;;;5057877;28;20045;-90
2021/12/09 07:36:18;;;;;;;44.72;16.30;;;0.10;99.90;;;;;;5074567;28;20041;-90
2021/12/09 07:38:46;;;;;;;48.30;16.75;;;-0.10;99.90;;;;;;5057751;28;20090;-89
2021/12/09 07:41:15;;;;;;;45.97;16.65;;;-0.10;99.90;;;;;;5057195;28;20093;-90
2021/12/09 07:43:42;;;;;;;46.22;17.60;;;-0.10;99.90;;;;;;5073572;28;20066;-90
2021/12/09 07:46:08;;;;;;;40.42;17.23;;;-0.10;99.90;;;;;;5057677;28;20067;-90
2021/12/09 07:48:34;;;;;;;45.70;16.83;;;-0.10;99.90;;;;;;5074211;28;20052;-89
2021/12/09 07:50:59;;;;;;;42.53;16.23;;;-0.10;99.90;;;;;;5057415;28;20509;-90
2021/12/09 07:53:25;;;;;;;46.13;17.08;;;-0.10;99.90;;;;;;5074164;28;20052;-89
2021/12/09 07:55:52;;;;;;;46.97;16.08;;;-0.10;99.90;;;;;;5073942;28;20367;-91
2021/12/09 07:58:18;;;;;;;39.88;16.33;;;-0.10;99.90;;;;;;5074478;28;20049;-89
2021/12/09 08:00:45;;;;;;;39.70;14.90;;;-0.10;99.90;;;;;;5074064;28;20131;-89
2021/12/09 08:03:11;;;;;;;41.92;16.60;;;0.00;99.90;;;;;;5073965;28;20090;-90
2021/12/09 08:05:41;;;;;;;43.50;16.40;;;-0.10;99.90;;;;;;5073915;28;20544;-89
2021/12/09 08:08:07;;;;;;;44.72;16.63;;;0.00;99.90;;;;;;5073978;28;20060;-89
2021/12/09 08:10:34;;;;;;;44.90;15.93;;;0.00;99.90;;;;;;5073699;28;20052;-90
2021/12/09 08:13:01;;;;;;;40.20;15.35;;;-0.10;99.90;;;;;;5073896;28;20086;-90
2021/12/09 08:15:32;;;;;;;39.70;14.77;;;0.00;99.90;;;;;;5073721;28;20567;-89
2021/12/09 08:20:28;;;;;;;38.35;14.18;;;0.00;99.90;;;;;;5073138;28;20136;-90
2021/12/09 08:22:54;;;;;;;42.20;14.63;;;0.00;99.90;;;;;;5056870;28;20137;-90
2021/12/09 08:25:21;;;;;;;35.30;14.27;;;0.00;99.90;;;;;;5056956;28;20071;-91
2021/12/09 08:27:47;;;;;;;36.38;14.85;;;0.10;99.90;;;;;;5056687;28;20060;-89
2021/12/09 08:30:15;;;;;;;31.45;13.45;;;0.20;99.90;;;;;;5056856;28;20040;-90
2021/12/09 08:32:41;;;;;;;31.00;12.75;;;0.20;99.90;;;;;;5057100;28;20049;-89
2021/12/09 08:35:07;;;;;;;34.00;14.27;;;0.40;99.90;;;;;;5073631;28;20051;-90
2021/12/09 08:37:33;;;;;;;37.45;14.65;;;0.20;99.90;;;;;;5056592;28;20040;-91
2021/12/09 08:39:59;;;;;;;29.95;14.88;;;0.20;99.90;;;;;;5072997;28;20041;-90
2021/12/09 08:42:25;;;;;;;35.63;13.90;;;0.70;99.90;;;;;;5073603;28;20474;-89
2021/12/09 08:44:52;;;;;;;30.23;13.05;;;0.30;99.90;;;;;;5073499;28;20429;-90
2021/12/09 08:47:18;;;;;;;31.67;12.45;;;0.30;99.90;;;;;;5073192;28;20048;-91
2021/12/09 08:49:45;;;;;;;32.20;13.00;;;0.40;99.90;;;;;;5073208;28;20532;-90
2021/12/09 08:52:11;;;;;;;29.63;12.13;;;0.40;99.90;;;;;;5072899;28;20052;-90
2021/12/09 08:54:37;;;;;;;31.40;12.00;;;0.50;99.90;;;;;;5072825;28;20052;-90
2021/12/09 08:57:04;;;;;;;28.27;11.23;;;0.70;99.90;;;;;;5073468;28;20475;-90
2021/12/09 08:59:30;;;;;;;26.08;10.50;;;0.50;99.90;;;;;;5073706;28;20499;-90
2021/12/09 09:01:56;;;;;;;22.85;9.27;;;0.70;99.90;;;;;;5073327;28;20475;-91
2021/12/09 09:04:22;;;;;;;21.25;8.50;;;0.90;99.90;;;;;;5056706;28;20040;-91
2021/12/09 09:07:02;;;;;;;19.20;8.18;;;1.30;99.90;;;;;;5056599;28;20548;-91
2021/12/09 09:09:33;;;;;;;15.18;7.38;;;1.40;99.90;;;;;;5056729;28;20131;-92
2021/12/09 09:12:01;;;;;;;18.00;7.43;;;1.90;99.90;;;;;;5056764;28;20055;-92
2021/12/09 09:14:26;;;;;;;18.20;7.15;;;1.70;99.90;;;;;;5056786;28;20086;-94
2021/12/09 09:16:52;;;;;;;17.33;7.38;;;2.10;99.90;;;;;;5073625;28;20486;-92
2021/12/09 09:19:18;;;;;;;12.35;6.32;;;2.60;99.90;;;;;;5056347;28;20071;-94
2021/12/09 09:21:44;;;;;;;16.17;6.28;;;3.00;99.90;;;;;;5056148;28;20052;-93
2021/12/09 09:24:09;;;;;;;16.55;6.00;;;3.70;99.90;;;;;;5056563;28;20513;-94
2021/12/09 09:26:36;;;;;;;14.50;5.93;;;3.90;99.90;;;;;;5073497;28;20055;-93
2021/12/09 09:29:02;;;;;;;13.52;5.90;;;4.40;99.90;;;;;;5056340;28;20055;-93
2021/12/09 09:31:30;;;;;;;14.13;5.30;;;4.50;99.90;;;;;;5073247;28;20088;-93
2021/12/09 09:33:59;;;;;;;14.48;5.93;;;5.00;99.90;;;;;;5056574;28;20521;-94
2021/12/09 09:36:25;;;;;;;10.77;4.85;;;5.10;99.90;;;;;;5073179;28;20115;-95
2021/12/09 09:38:59;;;;;;;11.90;5.13;;;5.50;99.90;;;;;;5056527;28;20110;-93
2021/12/09 09:41:32;;;;;;;13.20;5.38;;;5.60;99.90;;;;;;5056400;28;20041;-95
2021/12/09 09:44:10;;;;;;;12.38;5.25;;;5.80;99.90;;;;;;5056970;28;20049;-94
2021/12/09 09:46:36;;;;;;;11.65;4.55;;;6.20;99.90;;;;;;5073398;28;20055;-94
2021/12/09 09:49:05;;;;;;;11.00;4.28;;;6.20;99.90;;;;;;5056368;28;20040;-94
2021/12/09 09:51:31;;;;;;;10.70;4.45;;;6.30;99.90;;;;;;5072718;28;20135;-94
2021/12/09 09:53:58;;;;;;;13.88;4.95;;;6.60;99.90;;;;;;5056466;28;20201;-92
2021/12/09 09:56:25;;;;;;;11.77;4.38;;;6.80;99.90;;;;;;5073194;28;20044;-92
2021/12/09 09:58:54;;;;;;;13.40;4.43;;;6.90;99.90;;;;;;5072706;28;20048;-93
2021/12/09 10:01:20;;;;;;;9.15;4.28;;;7.00;99.90;;;;;;5072529;28;20490;-91
2021/12/09 10:03:48;;;;;;;10.85;4.57;;;7.60;99.90;;;;;;5056113;28;20037;-92
2021/12/09 10:06:19;;;;;;;13.52;4.35;;;7.40;99.90;;;;;;5056226;28;20052;-91
2021/12/09 10:08:46;;;;;;;12.73;4.80;;;7.50;99.90;;;;;;5076543;28;20482;-93
2021/12/09 10:11:12;;;;;;;12.85;4.78;;;7.30;99.90;;;;;;5060172;28;20133;-91
2021/12/09 10:13:41;;;;;;;16.70;4.50;;;7.20;99.90;;;;;;5076480;28;20044;-93
2021/12/09 10:16:22;;;;;;;10.25;4.85;;;6.70;99.90;;;;;;5059997;28;20044;-92
2021/12/09 10:18:52;;;;;;;11.52;5.20;;;6.00;99.90;;;;;;5060387;28;20044;-94
2021/12/09 10:21:29;;;;;;;9.65;4.60;;;5.30;99.90;;;;;;5059437;28;20049;-93
2021/12/09 10:24:07;;;;;;;14.00;5.00;;;4.80;99.90;;;;;;5059905;28;20045;-93
2021/12/09 10:26:36;;;;;;;12.25;5.03;;;4.40;99.90;;;;;;5059535;28;20102;-92
2021/12/09 10:29:27;;;;;;;14.88;5.53;;;4.10;99.90;;;;;;5060386;28;20037;-94
2021/12/09 10:32:00;;;;;;;12.60;4.65;;;3.90;99.90;;;;;;5059940;28;20048;-93
2021/12/09 10:34:53;;;;;;;15.10;5.70;;;3.70;99.90;;;;;;5059781;28;20041;-93
2021/12/09 10:37:33;;;;;;;14.93;5.50;;;3.60;99.90;;;;;;5073374;28;20498;-93
2021/12/09 10:39:59;;;;;;;12.50;5.70;;;3.50;99.90;;;;;;5059778;28;20095;-92
2021/12/09 10:42:40;;;;;;;12.00;4.85;;;3.60;99.90;;;;;;5076429;28;20040;-93
2021/12/09 10:45:07;;;;;;;;;;;3.60;99.90;;;;;;5060391;28;20510;-94
2021/12/09 10:47:55;;;;;;;15.88;5.68;;;3.40;99.90;;;;;;5076517;28;19971;-93
2021/12/09 10:50:41;;;;;;;16.50;5.90;;;3.60;99.90;;;;;;5059562;28;20511;-94
2021/12/09 10:55:48;;;;;;;17.33;6.72;;;3.60;99.90;;;;;;5076679;28;20402;-92
2021/12/09 10:58:16;;;;;;;15.13;6.35;;;3.60;99.90;;;;;;5076045;28;20157;-93
2021/12/09 11:00:52;;;;;;;13.80;6.70;;;3.60;99.90;;;;;;5059344;28;20082;-93
2021/12/09 11:03:35;;;;;;;15.20;7.38;;;3.80;99.90;;;;;;5059658;28;20045;-93
2021/12/09 11:06:03;;;;;;;16.63;7.70;;;4.20;99.90;;;;;;5059458;28;20052;-94
2021/12/09 11:08:49;;;;;;;15.35;7.55;;;3.70;99.90;;;;;;5060223;28;20555;-93
2021/12/09 11:11:33;;;;;;;20.15;7.65;;;3.80;99.90;;;;;;5059635;28;20690;-95
2021/12/09 11:14:04;;;;;;;19.83;7.85;;;3.80;99.90;;;;;;5077267;28;20505;-94
2021/12/09 11:16:55;;;;;;;17.30;8.00;;;3.80;99.90;;;;;;5060397;28;20205;-93
2021/12/09 11:19:42;;;;;;;17.30;8.07;;;3.80;99.90;;;;;;5002497;28;20061;-93
2021/12/09 11:22:18;;;;;;;16.50;8.35;;;4.10;99.90;;;;;;5051921;28;20052;-93
2021/12/09 11:24:47;;;;;;;19.85;8.18;;;3.80;99.90;;;;;;5035363;28;20061;-94
2021/12/09 11:27:18;;;;;;;15.68;8.07;;;3.60;99.90;;;;;;5052025;28;20152;-94
2021/12/09 11:29:53;;;;;;;19.08;8.80;;;3.80;99.90;;;;;;5051739;28;20068;-93
2021/12/09 11:35:01;;;;;;;14.90;8.20;;;3.40;99.90;;;;;;5018185;28;20085;-93
2021/12/09 11:40:07;;;;;;;16.77;9.18;;;3.40;99.90;;;;;;5018530;28;20136;-93
2021/12/09 11:42:47;;;;;;;21.27;9.32;;;3.80;99.90;;;;;;5034889;28;20080;-93
2021/12/09 11:45:16;;;;;;;25.35;9.93;;;3.30;99.90;;;;;;5035132;28;20426;-93
2021/12/09 11:47:44;;;;;;;19.90;9.70;;;3.30;99.90;;;;;;5051851;28;20042;-95
2021/12/09 11:50:14;;;;;;;21.73;8.63;;;3.60;99.90;;;;;;5034781;28;20084;-93
2021/12/09 11:52:43;;;;;;;21.10;9.85;;;3.30;99.90;;;;;;5034808;28;20105;-94
2021/12/09 11:55:12;;;;;;;21.63;8.93;;;3.40;99.90;;;;;;5051051;28;20509;-93
2021/12/09 11:57:45;;;;;;;23.40;10.07;;;3.30;99.90;;;;;;5075435;28;20577;-94
2021/12/09 12:14:53;;;;;;;24.05;10.48;;;3.50;99.90;;;;;;5066827;28;20048;-94
2021/12/09 12:20:50;;;;;;;22.38;10.95;;;3.40;99.90;;;;;;5074673;28;20525;-94
2021/12/09 12:23:56;;;;;;;31.98;10.50;;;3.50;99.90;;;;;;5058093;28;20044;-93
2021/12/09 12:35:08;;;;;;;28.88;11.65;;;3.60;99.90;;;;;;5074357;28;20051;-94
2021/12/09 12:38:06;;;;;;;29.05;11.57;;;3.60;99.90;;;;;;5058010;28;20524;-92
2021/12/09 12:40:33;;;;;;;28.42;12.20;;;3.70;99.90;;;;;;5058120;28;20048;-93
2021/12/09 12:43:08;;;;;;;26.48;11.80;;;3.70;99.90;;;;;;5057794;28;20044;-93
2021/12/09 12:51:25;;;;;;;31.80;12.85;;;3.70;99.90;;;;;;5074359;28;20060;-93
2021/12/09 12:53:56;;;;;;;25.20;12.55;;;3.80;99.90;;;;;;5057371;28;20044;-92
2021/12/09 12:56:24;;;;;;;32.45;12.90;;;3.80;99.90;;;;;;5057848;28;20048;-93
2021/12/09 12:59:06;;;;;;;25.02;12.13;;;3.80;99.90;;;;;;5056932;28;20044;-94
2021/12/09 13:01:47;;;;;;;26.58;12.50;;;3.80;99.90;;;;;;5073070;28;20123;-93
2021/12/09 13:04:27;;;;;;;28.85;12.10;;;3.80;99.90;;;;;;5073474;28;20556;-93
2021/12/09 13:07:00;;;;;;;26.13;11.73;;;3.90;99.90;;;;;;5073453;28;20052;-94
2021/12/09 13:09:39;;;;;;;24.23;11.65;;;3.90;99.90;;;;;;5073535;28;20054;-93
2021/12/09 13:12:11;;;;;;;27.02;11.32;;;3.90;99.90;;;;;;5056339;28;20121;-93
2021/12/09 13:15:06;;;;;;;28.23;12.20;;;4.20;99.90;;;;;;5056709;28;20044;-94
2021/12/09 13:17:37;;;;;;;28.42;12.20;;;3.90;99.90;;;;;;5056680;28;20048;-94
2021/12/09 13:20:14;;;;;;;;;;;3.90;99.90;;;;;;5073319;28;20058;-93
2021/12/09 13:22:41;;;;;;;24.17;11.07;;;3.90;99.90;;;;;;5056521;28;20389;-94
2021/12/09 13:25:23;;;;;;;28.42;10.05;;;3.80;99.90;;;;;;5056484;28;20060;-93
2021/12/09 13:27:55;;;;;;;23.73;10.88;;;3.80;99.90;;;;;;5056829;28;20105;-93
2021/12/09 13:31:02;;;;;;;29.75;10.98;;;3.80;99.90;;;;;;5056566;28;20051;-93
2021/12/09 13:33:53;;;;;;;27.42;11.60;;;3.90;99.90;;;;;;5073333;28;20440;-92
2021/12/09 13:36:35;;;;;;;20.27;10.75;;;4.00;99.90;;;;;;5056675;28;20076;-93